Albany, Kentucky
Current Conditions -  °F | °C
As of 1:56 PM on Sunday 21 Dec 2014 (Local Time) from KEKQ Reporting Station
Clear Clear  
Wind Chill: 50°   Ceiling: Unl
Heat Index: 50°   Visibility: 10mi
Dew Point: 30°   Wind: 3mph
Humidity: 46%   Direction: 20°NNE
Pressure: 30.14"   Gusts: NA
Location:  36.69°N, 85.13°W
Report Text: KEKQ 211956Z AUTO 02003KT 10SM CLR 10/M01 A3014 RMK AO2 T01001011 SLP216
Loading
Personal Weather Stations






























Interactive Weather Map New forecast layout! Learn more

10-Day Weather Forecast

Advertisements
Track Severe Weather on mobile